Time;durP1;ratioP1;P1;durP2;ratioP2;P2;SDS_P1;SDS_P2;PMS_P1;PMS_P2;Temp;Humidity;BMP_temperature;BMP_pressure;BME280_temperature;BME280_humidity;BME280_pressure;Samples;Min_cycle;Max_cycle;Signal;HPM_P1;HPM_P2
2021/12/27 00:01:40;0.00;0.00;0.62;0.00;0.00;0.62;5.17;3.60;;;19.20;24.50;;;;;;2264859;61;20400;-60
2021/12/27 00:04:26;0.00;0.00;0.62;0.00;0.00;0.62;5.47;3.27;;;19.10;24.30;;;;;;2265849;61;20439;-56
2021/12/27 00:07:11;0.00;0.00;0.62;0.00;0.00;0.62;4.57;3.70;;;19.10;24.30;;;;;;2265289;61;20385;-56
2021/12/27 00:09:56;0.00;0.00;0.62;0.00;0.00;0.62;4.33;3.50;;;19.10;24.20;;;;;;2265269;61;20357;-60
2021/12/27 00:12:41;0.00;0.00;0.62;0.00;0.00;0.62;5.17;3.87;;;19.10;24.20;;;;;;2265696;61;20399;-60
2021/12/27 00:15:26;0.00;0.00;0.62;0.00;0.00;0.62;3.80;2.97;;;19.10;24.20;;;;;;2266085;61;20395;-60
2021/12/27 00:18:11;0.00;0.00;0.62;0.00;0.00;0.62;3.93;3.53;;;19.10;24.30;;;;;;2266034;61;20377;-55
2021/12/27 00:20:57;0.00;0.00;0.62;0.00;0.00;0.62;3.80;2.60;;;19.00;24.30;;;;;;2265612;61;20433;-57
2021/12/27 00:23:42;0.00;0.00;0.62;0.00;0.00;0.62;3.60;2.87;;;19.10;24.40;;;;;;2265533;61;20739;-61
2021/12/27 00:26:26;0.00;0.00;0.62;0.00;0.00;0.62;3.70;2.90;;;19.00;24.40;;;;;;2266129;61;20415;-59
2021/12/27 00:29:11;0.00;0.00;0.62;0.00;0.00;0.62;3.30;2.70;;;19.00;24.40;;;;;;2265767;61;20408;-55
2021/12/27 00:31:55;0.00;0.00;0.62;0.00;0.00;0.62;4.33;3.40;;;19.00;24.40;;;;;;2265588;61;20356;-57
2021/12/27 00:34:40;0.00;0.00;0.62;0.00;0.00;0.62;3.03;2.67;;;19.00;24.50;;;;;;2265491;61;20434;-59
2021/12/27 00:37:26;0.00;0.00;0.62;0.00;0.00;0.62;3.57;2.57;;;19.00;24.50;;;;;;2264190;61;20397;-58
2021/12/27 00:40:12;0.00;0.00;0.62;0.00;0.00;0.62;3.93;2.83;;;19.00;24.50;;;;;;2261863;61;20432;-60
2021/12/27 00:42:57;0.00;0.00;0.62;0.00;0.00;0.62;3.23;2.70;;;19.00;24.60;;;;;;2261487;61;20453;-59
2021/12/27 00:45:42;0.00;0.00;0.62;0.00;0.00;0.62;3.70;2.63;;;19.00;24.60;;;;;;2261347;61;20784;-60
2021/12/27 00:48:27;0.00;0.00;0.62;0.00;0.00;0.62;4.23;2.80;;;19.00;24.60;;;;;;2262091;61;20434;-57
2021/12/27 00:51:11;0.00;0.00;0.62;0.00;0.00;0.62;2.87;2.30;;;19.00;24.60;;;;;;2261508;61;20361;-58
2021/12/27 00:53:57;0.00;0.00;0.62;0.00;0.00;0.62;2.67;2.23;;;19.00;24.70;;;;;;2261450;61;20579;-60
2021/12/27 00:56:42;0.00;0.00;0.62;0.00;0.00;0.62;2.53;2.07;;;19.00;24.70;;;;;;2261629;61;20777;-56
2021/12/27 00:59:27;0.00;0.00;0.62;0.00;0.00;0.62;3.40;2.30;;;19.00;24.70;;;;;;2261943;61;20416;-58
2021/12/27 01:02:11;0.00;0.00;0.62;0.00;0.00;0.62;2.53;2.30;;;19.00;24.70;;;;;;2261763;61;20362;-57
2021/12/27 01:04:56;0.00;0.00;0.62;0.00;0.00;0.62;2.50;1.73;;;19.00;24.70;;;;;;2261461;61;20752;-57
2021/12/27 01:07:41;0.00;0.00;0.62;0.00;0.00;0.62;2.80;2.17;;;19.00;24.80;;;;;;2261741;61;20443;-60
2021/12/27 01:13:46;0.00;0.00;0.62;0.00;0.00;0.62;2.30;2.00;;;19.00;24.80;;;;;;2261892;61;20389;-59
2021/12/27 01:16:31;0.00;0.00;0.62;0.00;0.00;0.62;2.73;2.17;;;19.00;24.80;;;;;;2261431;61;20401;-61
2021/12/27 01:19:15;0.00;0.00;0.62;0.00;0.00;0.62;2.60;1.83;;;19.00;24.90;;;;;;2261378;61;20421;-59
2021/12/27 01:22:00;0.00;0.00;0.62;0.00;0.00;0.62;3.77;2.50;;;19.00;24.90;;;;;;2261694;61;20362;-59
2021/12/27 01:24:45;0.00;0.00;0.62;0.00;0.00;0.62;2.80;2.10;;;18.90;24.80;;;;;;2261773;61;20653;-55
2021/12/27 01:27:31;0.00;0.00;0.62;0.00;0.00;0.62;2.80;2.33;;;19.00;24.90;;;;;;2261439;61;20469;-58
2021/12/27 01:30:19;0.00;0.00;0.62;0.00;0.00;0.62;2.37;1.73;;;18.90;24.80;;;;;;2258058;61;20486;-56
2021/12/27 01:33:05;0.00;0.00;0.62;0.00;0.00;0.62;2.80;2.00;;;18.90;24.90;;;;;;2258777;61;20473;-60
2021/12/27 01:35:50;0.00;0.00;0.62;0.00;0.00;0.62;2.70;1.77;;;18.90;24.90;;;;;;2261614;61;20394;-58
2021/12/27 01:38:36;0.00;0.00;0.62;0.00;0.00;0.62;2.47;1.80;;;18.90;24.90;;;;;;2264984;61;20373;-55
2021/12/27 01:41:20;0.00;0.00;0.62;0.00;0.00;0.62;3.00;2.13;;;18.90;24.90;;;;;;2265224;61;20381;-61
2021/12/27 01:44:06;0.00;0.00;0.62;0.00;0.00;0.62;2.50;2.23;;;18.90;24.90;;;;;;2265785;61;20653;-59
2021/12/27 01:46:53;0.00;0.00;0.62;0.00;0.00;0.62;3.37;2.30;;;18.90;24.90;;;;;;2264151;61;20416;-60
2021/12/27 01:49:37;0.00;0.00;0.62;0.00;0.00;0.62;2.40;2.00;;;18.90;24.90;;;;;;2263960;61;20404;-60
2021/12/27 01:52:21;0.00;0.00;0.62;0.00;0.00;0.62;2.50;1.73;;;18.90;24.90;;;;;;2265068;61;20724;-60
2021/12/27 01:55:06;0.00;0.00;0.62;0.00;0.00;0.62;3.00;2.20;;;18.90;25.00;;;;;;2265986;61;20505;-55
2021/12/27 01:57:51;0.00;0.00;0.62;0.00;0.00;0.62;2.30;1.63;;;18.90;24.90;;;;;;2265547;61;20381;-58
2021/12/27 02:00:43;0.00;0.00;0.62;0.00;0.00;0.62;2.30;1.90;;;19.00;25.00;;;;;;2261963;61;20785;-58
2021/12/27 02:03:32;0.00;0.00;0.62;0.00;0.00;0.62;2.67;1.87;;;18.90;25.00;;;;;;2265438;61;20357;-60
2021/12/27 02:06:19;0.00;0.00;0.62;0.00;0.00;0.62;2.60;2.00;;;18.90;25.00;;;;;;2265397;61;20421;-56
2021/12/27 02:09:04;0.00;0.00;0.62;0.00;0.00;0.62;2.63;1.60;;;18.90;25.00;;;;;;2265495;61;20430;-57
2021/12/27 02:11:50;0.00;0.00;0.62;0.00;0.00;0.62;2.37;1.93;;;18.90;25.00;;;;;;2265322;61;20738;-59
2021/12/27 02:14:34;0.00;0.00;0.62;0.00;0.00;0.62;2.10;1.80;;;18.90;25.00;;;;;;2265072;61;20558;-59
2021/12/27 02:17:20;0.00;0.00;0.62;0.00;0.00;0.62;3.10;1.93;;;18.90;25.00;;;;;;2266075;61;20626;-61
2021/12/27 02:20:09;0.00;0.00;0.62;0.00;0.00;0.62;2.70;1.90;;;18.90;25.00;;;;;;2265414;61;20819;-59
2021/12/27 02:22:59;0.00;0.00;0.62;0.00;0.00;0.62;2.10;1.50;;;18.90;25.00;;;;;;2265162;61;20440;-59
2021/12/27 02:25:47;0.00;0.00;0.62;0.00;0.00;0.62;2.87;1.70;;;18.90;25.00;;;;;;2265129;61;20585;-58
2021/12/27 02:28:31;0.00;0.00;0.62;0.00;0.00;0.62;2.30;1.50;;;18.90;25.00;;;;;;2265550;61;20368;-60
2021/12/27 02:31:17;0.00;0.00;0.62;0.00;0.00;0.62;2.30;1.63;;;18.90;25.10;;;;;;2265675;61;20625;-57
2021/12/27 02:34:02;0.00;0.00;0.62;0.00;0.00;0.62;2.37;1.50;;;18.90;25.10;;;;;;2262104;61;20407;-58
2021/12/27 02:36:49;0.00;0.00;0.62;0.00;0.00;0.62;3.03;1.67;;;18.90;25.10;;;;;;2264934;61;20642;-57
2021/12/27 02:39:34;0.00;0.00;0.62;0.00;0.00;0.62;2.03;1.33;;;18.90;25.10;;;;;;2265776;61;20380;-57
2021/12/27 02:42:20;0.00;0.00;0.62;0.00;0.00;0.62;2.23;1.53;;;18.90;25.10;;;;;;2265422;61;20404;-60
2021/12/27 02:45:05;0.00;0.00;0.62;0.00;0.00;0.62;2.37;2.07;;;18.90;25.10;;;;;;2264960;61;20380;-61
2021/12/27 02:47:50;0.00;0.00;0.62;0.00;0.00;0.62;2.10;1.60;;;18.90;25.10;;;;;;2265110;61;20767;-59
2021/12/27 02:50:35;0.00;0.00;0.62;0.00;0.00;0.62;2.13;1.27;;;18.90;25.10;;;;;;2265509;61;20673;-57
2021/12/27 02:53:23;0.00;0.00;0.62;0.00;0.00;0.62;2.17;1.80;;;18.90;25.20;;;;;;2265424;61;20729;-60
2021/12/27 02:56:08;0.00;0.00;0.62;0.00;0.00;0.62;1.97;1.50;;;18.90;25.20;;;;;;2265054;61;20614;-58
2021/12/27 02:58:53;0.00;0.00;0.62;0.00;0.00;0.62;1.70;1.30;;;18.90;25.20;;;;;;2265050;61;20388;-60
2021/12/27 03:01:38;0.00;0.00;0.62;0.00;0.00;0.62;2.73;1.30;;;18.90;25.20;;;;;;2265897;61;20357;-58
2021/12/27 03:04:23;0.00;0.00;0.62;0.00;0.00;0.62;2.77;1.87;;;18.90;25.20;;;;;;2265316;61;20369;-58
2021/12/27 03:07:08;0.00;0.00;0.62;0.00;0.00;0.62;4.03;1.77;;;18.90;25.20;;;;;;2264984;61;20377;-57
2021/12/27 03:09:57;0.00;0.00;0.62;0.00;0.00;0.62;2.23;1.70;;;18.90;25.20;;;;;;2265323;61;20385;-56
2021/12/27 03:12:44;0.00;0.00;0.62;0.00;0.00;0.62;2.37;1.73;;;18.90;25.20;;;;;;2265433;61;20361;-58
2021/12/27 03:15:28;0.00;0.00;0.62;0.00;0.00;0.62;2.37;2.00;;;18.90;25.20;;;;;;2265406;61;20357;-58
2021/12/27 03:18:13;0.00;0.00;0.62;0.00;0.00;0.62;2.10;1.57;;;18.90;25.20;;;;;;2265209;61;20411;-60
2021/12/27 03:20:58;0.00;0.00;0.62;0.00;0.00;0.62;2.60;1.70;;;18.90;25.20;;;;;;2264699;61;20434;-60
2021/12/27 03:23:44;0.00;0.00;0.62;0.00;0.00;0.62;2.20;1.70;;;18.90;25.20;;;;;;2265904;61;20578;-58
2021/12/27 03:26:31;0.00;0.00;0.62;0.00;0.00;0.62;2.23;1.47;;;18.90;25.20;;;;;;2261788;61;20436;-59
2021/12/27 03:29:15;0.00;0.00;0.62;0.00;0.00;0.62;1.83;1.23;;;18.90;25.20;;;;;;2264884;61;20360;-58
2021/12/27 03:32:00;0.00;0.00;0.62;0.00;0.00;0.62;2.33;1.67;;;18.90;25.20;;;;;;2265486;61;20365;-60
2021/12/27 03:34:53;0.00;0.00;0.62;0.00;0.00;0.62;2.40;1.40;;;18.90;25.20;;;;;;2265504;61;20411;-60
2021/12/27 03:37:39;0.00;0.00;0.62;0.00;0.00;0.62;1.80;1.20;;;18.90;25.20;;;;;;2265369;61;20384;-60
2021/12/27 03:40:26;0.00;0.00;0.62;0.00;0.00;0.62;3.07;1.57;;;18.90;25.30;;;;;;2265014;61;20361;-60
2021/12/27 03:43:12;0.00;0.00;0.62;0.00;0.00;0.62;1.90;1.50;;;18.90;25.20;;;;;;2264902;61;20439;-58
2021/12/27 03:45:58;0.00;0.00;0.62;0.00;0.00;0.62;2.20;1.53;;;18.90;25.30;;;;;;2265621;61;20455;-59
2021/12/27 03:48:42;0.00;0.00;0.62;0.00;0.00;0.62;2.00;1.30;;;18.90;25.30;;;;;;2264918;61;20365;-59
2021/12/27 03:51:27;0.00;0.00;0.62;0.00;0.00;0.62;2.33;1.87;;;18.90;25.30;;;;;;2264955;61;20395;-58
2021/12/27 03:54:12;0.00;0.00;0.62;0.00;0.00;0.62;2.57;2.00;;;18.90;25.30;;;;;;2265445;61;20360;-58
2021/12/27 03:56:56;0.00;0.00;0.62;0.00;0.00;0.62;1.73;1.30;;;18.90;25.30;;;;;;2265508;61;20461;-58
2021/12/27 04:02:28;0.00;0.00;0.62;0.00;0.00;0.62;2.37;1.60;;;18.90;25.30;;;;;;2264809;61;20427;-58
2021/12/27 04:05:13;0.00;0.00;0.62;0.00;0.00;0.62;2.20;1.77;;;18.90;25.30;;;;;;2265185;61;20638;-60
2021/12/27 04:08:01;0.00;0.00;0.62;0.00;0.00;0.62;1.67;1.27;;;18.90;25.30;;;;;;2265650;61;20412;-57
2021/12/27 04:10:46;0.00;0.00;0.62;0.00;0.00;0.62;2.20;1.40;;;18.90;25.30;;;;;;2265085;61;20814;-58
2021/12/27 04:13:31;0.00;0.00;0.62;0.00;0.00;0.62;2.37;1.50;;;18.90;25.30;;;;;;2264785;61;20357;-55
2021/12/27 04:16:17;0.00;0.00;0.62;0.00;0.00;0.62;1.40;1.17;;;18.90;25.30;;;;;;2265174;61;20377;-59
2021/12/27 04:19:01;0.00;0.00;0.62;0.00;0.00;0.62;2.27;1.27;;;18.90;25.30;;;;;;2262710;61;20353;-59
2021/12/27 04:21:47;0.00;0.00;0.62;0.00;0.00;0.62;2.10;1.43;;;18.90;25.30;;;;;;2265002;61;20353;-58
2021/12/27 04:24:32;0.00;0.00;0.62;0.00;0.00;0.62;1.77;1.20;;;18.90;25.40;;;;;;2264976;61;20388;-57
2021/12/27 04:27:17;0.00;0.00;0.62;0.00;0.00;0.62;2.00;1.50;;;18.90;25.30;;;;;;2265513;61;20424;-56
2021/12/27 04:30:01;0.00;0.00;0.62;0.00;0.00;0.62;2.50;1.80;;;18.90;25.40;;;;;;2265316;61;20356;-59
2021/12/27 04:32:49;0.00;0.00;0.62;0.00;0.00;0.62;1.80;1.30;;;18.90;25.30;;;;;;2265042;61;20725;-59
2021/12/27 04:35:34;0.00;0.00;0.62;0.00;0.00;0.62;1.80;1.33;;;18.90;25.30;;;;;;2264754;61;20361;-56
2021/12/27 04:38:19;0.00;0.00;0.62;0.00;0.00;0.62;2.63;1.67;;;18.90;25.30;;;;;;2262044;61;20737;-60
2021/12/27 04:41:05;0.00;0.00;0.62;0.00;0.00;0.62;2.30;1.60;;;18.90;25.30;;;;;;2261327;61;20453;-55
2021/12/27 04:43:50;0.00;0.00;0.62;0.00;0.00;0.62;2.33;1.43;;;18.90;25.30;;;;;;2260859;61;20718;-58
2021/12/27 04:46:34;0.00;0.00;0.62;0.00;0.00;0.62;1.90;1.30;;;18.90;25.30;;;;;;2260840;61;20421;-60
2021/12/27 04:49:20;0.00;0.00;0.62;0.00;0.00;0.62;1.90;1.23;;;18.90;25.40;;;;;;2261079;61;20362;-58
2021/12/27 04:52:05;0.00;0.00;0.62;0.00;0.00;0.62;1.70;1.40;;;18.90;25.40;;;;;;2261290;61;20369;-55
2021/12/27 04:54:50;0.00;0.00;0.62;0.00;0.00;0.62;1.70;1.30;;;18.90;25.40;;;;;;2257741;61;20366;-58
2021/12/27 04:57:35;0.00;0.00;0.62;0.00;0.00;0.62;1.70;1.20;;;18.90;25.40;;;;;;2258102;61;20658;-59
2021/12/27 05:00:21;0.00;0.00;0.62;0.00;0.00;0.62;2.07;1.40;;;18.90;25.40;;;;;;2262095;61;20409;-55
2021/12/27 05:03:06;0.00;0.00;0.62;0.00;0.00;0.62;1.57;1.00;;;18.90;25.40;;;;;;2261916;61;20353;-59
2021/12/27 05:05:52;0.00;0.00;0.62;0.00;0.00;0.62;1.70;1.13;;;18.90;25.40;;;;;;2258096;61;20476;-58
2021/12/27 05:08:36;0.00;0.00;0.62;0.00;0.00;0.62;2.10;1.60;;;18.90;25.40;;;;;;2261467;61;20742;-57
2021/12/27 05:11:21;0.00;0.00;0.62;0.00;0.00;0.62;2.20;1.30;;;18.90;25.40;;;;;;2261807;61;20381;-59
2021/12/27 05:14:06;0.00;0.00;0.62;0.00;0.00;0.62;1.90;1.30;;;18.90;25.40;;;;;;2261735;61;20429;-59
2021/12/27 05:16:50;0.00;0.00;0.62;0.00;0.00;0.62;2.43;1.90;;;18.90;25.50;;;;;;2261438;61;20397;-60
2021/12/27 05:19:35;0.00;0.00;0.62;0.00;0.00;0.62;1.80;1.10;;;18.90;25.50;;;;;;2261460;61;20387;-60
2021/12/27 05:22:21;0.00;0.00;0.62;0.00;0.00;0.62;2.00;1.67;;;18.90;25.50;;;;;;2258935;61;20450;-61
2021/12/27 05:25:09;0.00;0.00;0.62;0.00;0.00;0.62;2.23;1.53;;;18.90;25.50;;;;;;2261488;61;20713;-60
2021/12/27 05:27:54;0.00;0.00;0.62;0.00;0.00;0.62;2.07;1.60;;;18.90;25.40;;;;;;2261239;61;20420;-60
2021/12/27 05:30:41;0.00;0.00;0.62;0.00;0.00;0.62;2.87;2.50;;;18.90;25.30;;;;;;2261319;61;20598;-58
2021/12/27 05:33:25;0.00;0.00;0.62;0.00;0.00;0.62;2.90;2.50;;;18.90;25.30;;;;;;2261731;61;20374;-60
2021/12/27 05:36:12;0.00;0.00;0.62;0.00;0.00;0.62;4.23;2.87;;;18.90;25.20;;;;;;2261529;61;20780;-62
2021/12/27 05:38:58;0.00;0.00;0.62;0.00;0.00;0.62;4.53;2.93;;;18.90;25.20;;;;;;2501924;53;20817;-60
2021/12/27 05:41:43;0.00;0.00;0.62;0.00;0.00;0.62;3.53;2.60;;;18.90;25.10;;;;;;2261025;61;20374;-58
2021/12/27 05:44:28;0.00;0.00;0.62;0.00;0.00;0.62;3.50;2.87;;;18.90;25.10;;;;;;2262163;61;20679;-60
2021/12/27 05:47:12;0.00;0.00;0.62;0.00;0.00;0.62;4.20;3.53;;;18.90;25.10;;;;;;2261376;61;20432;-61
2021/12/27 05:49:57;0.00;0.00;0.62;0.00;0.00;0.62;4.20;3.10;;;18.80;25.00;;;;;;2261118;61;20401;-59
2021/12/27 05:52:41;0.00;0.00;0.62;0.00;0.00;0.62;3.57;2.97;;;18.80;25.00;;;;;;2261479;61;20358;-60
2021/12/27 05:55:28;0.00;0.00;0.62;0.00;0.00;0.62;3.67;2.70;;;18.80;25.00;;;;;;2261589;61;20355;-60
2021/12/27 05:58:13;0.00;0.00;0.62;0.00;0.00;0.62;4.20;2.83;;;18.80;25.00;;;;;;2261795;61;20732;-60
2021/12/27 06:00:58;0.00;0.00;0.62;0.00;0.00;0.62;3.33;2.77;;;18.80;25.00;;;;;;2261215;61;20397;-58
2021/12/27 06:03:42;0.00;0.00;0.62;0.00;0.00;0.62;2.40;2.10;;;18.80;25.10;;;;;;2261336;61;20382;-60
2021/12/27 06:06:27;0.00;0.00;0.62;0.00;0.00;0.62;2.73;2.40;;;18.80;25.10;;;;;;2261786;61;20382;-60
2021/12/27 06:09:12;0.00;0.00;0.62;0.00;0.00;0.62;4.40;3.10;;;18.80;25.10;;;;;;2261332;61;20362;-59
2021/12/27 06:11:58;0.00;0.00;0.62;0.00;0.00;0.62;3.50;3.03;;;18.80;25.10;;;;;;2261345;61;20590;-60
2021/12/27 06:14:43;0.00;0.00;0.62;0.00;0.00;0.62;3.30;2.30;;;18.80;25.10;;;;;;2261631;61;20384;-58
2021/12/27 06:17:27;0.00;0.00;0.62;0.00;0.00;0.62;4.00;2.70;;;18.80;25.10;;;;;;2262011;61;20409;-58
2021/12/27 06:20:15;0.00;0.00;0.62;0.00;0.00;0.62;3.57;2.50;;;18.80;25.10;;;;;;2261562;61;20382;-60
2021/12/27 06:22:59;0.00;0.00;0.62;0.00;0.00;0.62;3.30;2.50;;;18.80;25.10;;;;;;2261318;61;20365;-58
2021/12/27 06:25:44;0.00;0.00;0.62;0.00;0.00;0.62;3.50;2.40;;;18.80;25.10;;;;;;2261133;61;20758;-58
2021/12/27 06:28:31;0.00;0.00;0.62;0.00;0.00;0.62;3.13;2.57;;;18.80;25.20;;;;;;2261989;61;20434;-60
2021/12/27 06:31:15;0.00;0.00;0.62;0.00;0.00;0.62;2.90;2.30;;;18.80;25.20;;;;;;2261390;61;20567;-56
2021/12/27 06:34:00;0.00;0.00;0.62;0.00;0.00;0.62;3.53;2.60;;;18.80;25.10;;;;;;2261069;61;20382;-60
2021/12/27 06:36:45;0.00;0.00;0.62;0.00;0.00;0.62;3.73;2.20;;;18.80;25.10;;;;;;2262111;61;20409;-59
2021/12/27 06:39:29;0.00;0.00;0.62;0.00;0.00;0.62;3.37;2.30;;;18.90;25.20;;;;;;2265868;61;20437;-56
2021/12/27 06:42:14;0.00;0.00;0.62;0.00;0.00;0.62;5.00;1.93;;;18.90;25.20;;;;;;2265287;61;20368;-58
2021/12/27 06:45:00;0.00;0.00;0.62;0.00;0.00;0.62;3.43;2.43;;;18.80;25.10;;;;;;2265097;61;20380;-58
2021/12/27 06:47:45;0.00;0.00;0.62;0.00;0.00;0.62;2.63;2.07;;;18.90;25.70;;;;;;2265588;61;20392;-55
2021/12/27 06:50:30;0.00;0.00;0.62;0.00;0.00;0.62;3.50;2.40;;;18.80;25.10;;;;;;2265653;61;20380;-59
2021/12/27 06:53:16;0.00;0.00;0.62;0.00;0.00;0.62;2.60;2.20;;;18.90;25.20;;;;;;2265148;61;20720;-60
2021/12/27 06:56:02;0.00;0.00;0.62;0.00;0.00;0.62;2.90;1.77;;;18.80;25.10;;;;;;2264998;61;20729;-58
2021/12/27 06:58:47;0.00;0.00;0.62;0.00;0.00;0.62;3.00;2.17;;;18.90;25.20;;;;;;2262852;61;20426;-58
2021/12/27 07:01:33;0.00;0.00;0.62;0.00;0.00;0.62;3.47;1.90;;;18.90;25.20;;;;;;2265491;61;20644;-58
2021/12/27 07:04:17;0.00;0.00;0.62;0.00;0.00;0.62;2.40;1.80;;;18.90;25.20;;;;;;2265801;61;20480;-58
2021/12/27 07:07:02;0.00;0.00;0.62;0.00;0.00;0.62;2.50;1.80;;;18.90;25.20;;;;;;2265626;61;20385;-59
2021/12/27 07:09:47;0.00;0.00;0.62;0.00;0.00;0.62;2.70;2.10;;;18.90;25.20;;;;;;2266752;61;20364;-60
2021/12/27 07:12:32;0.00;0.00;0.62;0.00;0.00;0.62;3.37;2.17;;;18.90;25.20;;;;;;2266633;61;20365;-60
2021/12/27 07:15:17;0.00;0.00;0.62;0.00;0.00;0.62;3.37;2.20;;;18.90;25.20;;;;;;2267343;61;20381;-59
2021/12/27 07:18:03;0.00;0.00;0.62;0.00;0.00;0.62;3.77;2.20;;;18.90;25.20;;;;;;2267197;61;20372;-55
2021/12/27 07:20:47;0.00;0.00;0.62;0.00;0.00;0.62;3.40;2.13;;;18.90;25.20;;;;;;2267304;61;20368;-59
2021/12/27 07:23:32;0.00;0.00;0.62;0.00;0.00;0.62;2.70;1.90;;;18.90;25.10;;;;;;2266369;61;20360;-60
2021/12/27 07:26:16;0.00;0.00;0.62;0.00;0.00;0.62;2.07;1.50;;;18.90;25.10;;;;;;2265361;61;20461;-60
2021/12/27 07:29:01;0.00;0.00;0.62;0.00;0.00;0.62;3.87;2.40;;;18.90;25.10;;;;;;2265091;61;20360;-59
2021/12/27 07:31:46;0.00;0.00;0.62;0.00;0.00;0.62;2.60;2.33;;;18.90;25.10;;;;;;2265336;61;20387;-57
2021/12/27 07:34:32;0.00;0.00;0.62;0.00;0.00;0.62;2.60;1.93;;;18.90;25.10;;;;;;2265554;61;20674;-59
2021/12/27 07:37:17;0.00;0.00;0.62;0.00;0.00;0.62;2.53;1.97;;;18.90;25.10;;;;;;2264549;61;20520;-58
2021/12/27 07:40:03;0.00;0.00;0.62;0.00;0.00;0.62;2.30;1.67;;;18.90;25.10;;;;;;2264480;61;20361;-60
2021/12/27 07:42:47;0.00;0.00;0.62;0.00;0.00;0.62;2.10;1.70;;;18.90;25.10;;;;;;2265306;61;20388;-60
2021/12/27 07:45:33;0.00;0.00;0.62;0.00;0.00;0.62;2.13;1.50;;;18.90;25.10;;;;;;2261376;61;20377;-56
2021/12/27 07:48:17;0.00;0.00;0.62;0.00;0.00;0.62;2.17;1.77;;;18.90;25.10;;;;;;2265027;61;20434;-60
2021/12/27 07:51:03;0.00;0.00;0.62;0.00;0.00;0.62;3.60;1.97;;;18.90;25.10;;;;;;2265290;61;20599;-58
2021/12/27 07:53:48;0.00;0.00;0.62;0.00;0.00;0.62;2.73;2.00;;;18.90;25.10;;;;;;2265504;61;20361;-57
2021/12/27 07:56:33;0.00;0.00;0.62;0.00;0.00;0.62;2.47;1.50;;;18.90;25.10;;;;;;2265096;61;20753;-56
2021/12/27 07:59:17;0.00;0.00;0.62;0.00;0.00;0.62;2.73;1.60;;;18.90;25.60;;;;;;2265126;61;20516;-60
2021/12/27 08:02:02;0.00;0.00;0.62;0.00;0.00;0.62;1.70;1.33;;;18.90;25.00;;;;;;2265396;61;20756;-55
2021/12/27 08:04:46;0.00;0.00;0.62;0.00;0.00;0.62;2.20;1.90;;;18.90;25.00;;;;;;2265518;61;20393;-57
2021/12/27 08:07:32;0.00;0.00;0.62;0.00;0.00;0.62;2.30;1.70;;;18.90;25.00;;;;;;2265032;61;20499;-56
2021/12/27 08:10:17;0.00;0.00;0.62;0.00;0.00;0.62;2.13;1.60;;;18.90;25.00;;;;;;2264910;61;20435;-60
2021/12/27 08:13:02;0.00;0.00;0.62;0.00;0.00;0.62;2.67;1.70;;;18.90;25.20;;;;;;2265352;61;20357;-61
2021/12/27 08:15:46;0.00;0.00;0.62;0.00;0.00;0.62;2.07;1.80;;;18.90;25.00;;;;;;2265501;61;20349;-60
2021/12/27 08:18:31;0.00;0.00;0.62;0.00;0.00;0.62;1.90;1.37;;;18.90;25.00;;;;;;2262076;61;20365;-59
2021/12/27 08:21:16;0.00;0.00;0.62;0.00;0.00;0.62;2.73;1.90;;;18.90;25.00;;;;;;2264769;61;20353;-59
2021/12/27 08:24:03;0.00;0.00;0.62;0.00;0.00;0.62;2.40;1.70;;;18.90;25.00;;;;;;2265441;61;20432;-58
2021/12/27 08:26:47;0.00;0.00;0.62;0.00;0.00;0.62;3.40;2.27;;;18.90;25.00;;;;;;2265578;61;20377;-58
2021/12/27 08:29:32;0.00;0.00;0.62;0.00;0.00;0.62;2.90;1.97;;;18.90;25.00;;;;;;2264831;61;20434;-59
2021/12/27 08:32:17;0.00;0.00;0.62;0.00;0.00;0.62;2.50;2.00;;;18.90;25.00;;;;;;2265460;61;20357;-58
2021/12/27 08:35:02;0.00;0.00;0.62;0.00;0.00;0.62;2.27;1.70;;;18.90;25.00;;;;;;2266413;61;20384;-58
2021/12/27 08:37:47;0.00;0.00;0.62;0.00;0.00;0.62;2.00;1.70;;;18.90;25.00;;;;;;2265978;61;20392;-58
2021/12/27 08:40:32;0.00;0.00;0.62;0.00;0.00;0.62;2.20;1.80;;;18.90;25.00;;;;;;2265476;61;20380;-58
2021/12/27 08:43:17;0.00;0.00;0.62;0.00;0.00;0.62;3.00;2.10;;;18.90;25.00;;;;;;2265611;61;20376;-59
2021/12/27 08:46:02;0.00;0.00;0.62;0.00;0.00;0.62;3.53;2.03;;;18.90;25.00;;;;;;2265949;61;20634;-58
2021/12/27 08:48:46;0.00;0.00;0.62;0.00;0.00;0.62;2.20;1.73;;;18.90;25.00;;;;;;2265866;61;20384;-60
2021/12/27 08:51:32;0.00;0.00;0.62;0.00;0.00;0.62;2.40;1.60;;;18.90;25.00;;;;;;2265714;61;20375;-57
2021/12/27 08:54:17;0.00;0.00;0.62;0.00;0.00;0.62;2.63;1.50;;;18.90;25.00;;;;;;2262206;61;20946;-59
2021/12/27 08:57:05;0.00;0.00;0.62;0.00;0.00;0.62;2.30;1.83;;;18.90;25.00;;;;;;2266072;61;20380;-56
2021/12/27 08:59:50;0.00;0.00;0.62;0.00;0.00;0.62;1.57;1.20;;;18.90;25.00;;;;;;2266032;61;20639;-57
2021/12/27 09:02:35;0.00;0.00;0.62;0.00;0.00;0.62;2.27;1.37;;;18.90;25.00;;;;;;2265307;61;20658;-59
2021/12/27 09:05:20;0.00;0.00;0.62;0.00;0.00;0.62;2.67;1.70;;;18.90;25.00;;;;;;2265608;61;20388;-58
2021/12/27 09:08:05;0.00;0.00;0.62;0.00;0.00;0.62;2.10;1.40;;;18.90;25.60;;;;;;2266016;61;20432;-60
2021/12/27 09:10:50;0.00;0.00;0.62;0.00;0.00;0.62;2.07;1.50;;;18.90;25.00;;;;;;2265726;61;20353;-59
2021/12/27 09:13:38;0.00;0.00;0.62;0.00;0.00;0.62;1.90;1.30;;;18.90;25.00;;;;;;2265467;61;20345;-58
2021/12/27 09:16:23;0.00;0.00;0.62;0.00;0.00;0.62;1.97;1.30;;;18.90;25.00;;;;;;2264807;61;20492;-57
2021/12/27 09:19:07;0.00;0.00;0.62;0.00;0.00;0.62;1.80;1.27;;;19.00;25.10;;;;;;2266276;61;20396;-59
2021/12/27 09:21:52;0.00;0.00;0.62;0.00;0.00;0.62;1.90;1.23;;;18.90;25.00;;;;;;2265608;61;20360;-56
2021/12/27 09:24:37;0.00;0.00;0.62;0.00;0.00;0.62;1.90;1.30;;;19.00;25.20;;;;;;2265350;61;20377;-57
2021/12/27 09:27:22;0.00;0.00;0.62;0.00;0.00;0.62;2.77;1.80;;;18.90;25.10;;;;;;2265556;61;20744;-57
2021/12/27 09:30:09;0.00;0.00;0.62;0.00;0.00;0.62;2.83;1.40;;;19.00;25.10;;;;;;2265623;61;20743;-59
2021/12/27 09:32:54;0.00;0.00;0.62;0.00;0.00;0.62;2.13;1.60;;;18.90;25.00;;;;;;2265723;61;20369;-59
2021/12/27 09:35:39;0.00;0.00;0.62;0.00;0.00;0.62;2.17;1.40;;;19.00;25.20;;;;;;2262332;61;20391;-59
2021/12/27 09:38:23;0.00;0.00;0.62;0.00;0.00;0.62;1.80;1.13;;;19.00;25.10;;;;;;2265135;61;20368;-60
2021/12/27 09:41:08;0.00;0.00;0.62;0.00;0.00;0.62;1.70;1.20;;;19.00;25.10;;;;;;2265874;61;20404;-60
2021/12/27 09:43:54;0.00;0.00;0.62;0.00;0.00;0.62;1.80;1.33;;;19.00;25.10;;;;;;2265562;61;20405;-58
2021/12/27 09:46:40;0.00;0.00;0.62;0.00;0.00;0.62;1.87;1.20;;;19.00;25.10;;;;;;2265106;61;20381;-58
2021/12/27 09:49:29;0.00;0.00;0.62;0.00;0.00;0.62;1.93;1.53;;;19.00;25.10;;;;;;2265770;61;20365;-58
2021/12/27 09:52:16;0.00;0.00;0.62;0.00;0.00;0.62;2.10;1.40;;;19.00;25.10;;;;;;2265748;61;20403;-60
2021/12/27 09:55:03;0.00;0.00;0.62;0.00;0.00;0.62;2.23;1.47;;;19.00;25.10;;;;;;2265379;61;20388;-58
2021/12/27 09:57:48;0.00;0.00;0.62;0.00;0.00;0.62;1.90;1.30;;;19.00;25.10;;;;;;2265470;61;20449;-57
2021/12/27 10:00:34;0.00;0.00;0.62;0.00;0.00;0.62;2.03;1.57;;;19.00;25.10;;;;;;2265511;61;20443;-59
2021/12/27 10:03:23;0.00;0.00;0.62;0.00;0.00;0.62;2.50;1.50;;;19.00;25.10;;;;;;2266043;61;20364;-59
2021/12/27 10:06:12;0.00;0.00;0.62;0.00;0.00;0.62;1.90;1.20;;;19.00;25.10;;;;;;2265268;61;20405;-58
2021/12/27 10:09:00;0.00;0.00;0.62;0.00;0.00;0.62;2.30;1.80;;;19.00;25.10;;;;;;2265135;61;20391;-56
2021/12/27 10:11:46;0.00;0.00;0.62;0.00;0.00;0.62;2.33;1.40;;;19.00;25.10;;;;;;2265491;61;20775;-59
2021/12/27 10:14:33;0.00;0.00;0.62;0.00;0.00;0.62;2.37;1.50;;;19.00;25.10;;;;;;2265648;61;20361;-57
2021/12/27 10:17:18;0.00;0.00;0.62;0.00;0.00;0.62;2.10;1.67;;;19.00;25.10;;;;;;2265728;61;20373;-60
2021/12/27 10:20:20;0.00;0.00;0.62;0.00;0.00;0.62;2.00;1.47;;;19.00;25.10;;;;;;2265279;61;20698;-58
2021/12/27 10:23:06;0.00;0.00;0.62;0.00;0.00;0.62;2.50;1.80;;;19.00;25.10;;;;;;2262237;61;20724;-59
2021/12/27 10:25:51;0.00;0.00;0.62;0.00;0.00;0.62;2.00;1.47;;;19.00;25.10;;;;;;2266064;61;20419;-59
2021/12/27 10:28:36;0.00;0.00;0.62;0.00;0.00;0.62;2.67;1.40;;;19.00;25.00;;;;;;2265680;61;20380;-57
2021/12/27 10:31:21;0.00;0.00;0.62;0.00;0.00;0.62;2.50;1.53;;;19.00;25.00;;;;;;2265385;61;20432;-59
2021/12/27 10:34:06;0.00;0.00;0.62;0.00;0.00;0.62;1.90;1.40;;;19.00;25.00;;;;;;2265492;61;20431;-59
2021/12/27 10:37:15;0.00;0.00;0.62;0.00;0.00;0.62;1.80;1.20;;;19.00;25.00;;;;;;2264908;61;20382;-60
2021/12/27 10:40:06;0.00;0.00;0.62;0.00;0.00;0.62;2.13;1.33;;;19.00;25.00;;;;;;2258893;61;20722;-58
2021/12/27 10:42:54;0.00;0.00;0.62;0.00;0.00;0.62;2.50;1.50;;;19.00;25.00;;;;;;2261163;61;20370;-59
2021/12/27 10:45:39;0.00;0.00;0.62;0.00;0.00;0.62;2.23;1.60;;;19.00;25.00;;;;;;2261279;61;20604;-57
2021/12/27 10:48:24;0.00;0.00;0.62;0.00;0.00;0.62;2.07;1.30;;;19.00;25.00;;;;;;2258581;61;20366;-58
2021/12/27 10:51:10;0.00;0.00;0.62;0.00;0.00;0.62;2.00;1.30;;;19.10;25.10;;;;;;2258758;61;20481;-59
2021/12/27 10:53:58;0.00;0.00;0.62;0.00;0.00;0.62;2.40;1.80;;;19.10;25.10;;;;;;2261395;61;20722;-58
2021/12/27 10:56:52;0.00;0.00;0.62;0.00;0.00;0.62;2.00;1.30;;;19.00;25.00;;;;;;2261242;61;21000;-58
2021/12/27 10:59:37;0.00;0.00;0.62;0.00;0.00;0.62;1.93;1.30;;;19.00;25.00;;;;;;2261605;61;20414;-57